Airport View

Enter AWOS ICAO identifier for current METAR.

ex. KFNL

KMIA 221853Z 10015G21KT 10SM VCTS FEW037 FEW150 SCT250 33/23 A2998 RMK AO2 LTG DSNT SW-NW SLP152 CB DSNT NE AND E MOV SW CB DSNT SW-NW MOV STNRY T03280228

22 Jul 2019 19:05

Phone: 305-870-0235

Other Area AWOS: KOPF - KTMB - KHWO - KFLL

TAF KMIA 221720Z 2218/2324 08010KT P6SM SCT030 BKN120 FM230100 VRB05KT P6SM VCSH SCT030 BKN120 FM231400 23008KT P6SM VCSH SCT025 BKN100 FM231700 20010KT P6SM VCSH SCT030 SCT060 BKN250